createdAt,value
2019-01-27T14:50:14.658Z,32.33
2019-01-27T14:52:20.089Z,26.00
2019-01-27T14:54:24.426Z,26.00
2019-01-27T14:56:32.134Z,28.00
2019-01-27T14:58:39.066Z,32.11
2019-01-27T15:00:47.631Z,26.25
2019-01-27T15:02:51.766Z,25.75
2019-01-27T15:04:55.282Z,23.33
2019-01-27T15:07:03.979Z,33.50
2019-01-27T15:09:08.178Z,26.00
2019-01-27T15:11:16.522Z,23.50
2019-01-27T15:13:24.846Z,26.50
2019-01-27T15:15:33.436Z,24.00
2019-01-27T15:17:37.347Z,27.00
2019-01-27T15:19:41.500Z,26.00
2019-01-27T15:21:45.688Z,24.75
2019-01-27T15:23:48.773Z,21.00
2019-01-27T15:25:54.800Z,24.12
2019-01-27T15:27:57.898Z,27.00
2019-01-27T15:30:07.990Z,24.75
2019-01-27T15:32:12.318Z,25.75
2019-01-27T15:34:20.704Z,28.00
2019-01-27T15:36:24.092Z,28.33
2019-01-27T15:38:28.226Z,27.00
2019-01-27T15:40:34.258Z,26.37
2019-01-27T15:42:43.150Z,27.25
2019-01-27T15:44:46.985Z,27.00
2019-01-27T15:46:55.561Z,26.75
2019-01-27T15:48:58.862Z,29.00
2019-01-27T15:51:09.005Z,26.45
2019-01-27T15:53:13.054Z,27.00
2019-01-27T15:55:21.559Z,27.25
2019-01-27T15:57:29.903Z,30.50
2019-01-27T15:59:34.177Z,27.00
2019-01-27T16:01:39.286Z,26.00
2019-01-27T16:03:43.552Z,28.00
2019-01-27T16:05:47.762Z,27.50
2019-01-27T16:07:53.903Z,29.37
2019-01-27T16:09:57.441Z,26.67
2019-01-27T16:12:04.690Z,27.50
2019-01-27T16:14:08.874Z,25.50
2019-01-27T16:16:12.286Z,26.00
2019-01-27T16:18:20.711Z,29.37
2019-01-27T16:20:24.409Z,29.67
2019-01-27T16:22:27.972Z,28.00
2019-01-27T16:24:37.981Z,28.73
2019-01-27T16:26:41.374Z,26.00
2019-01-27T16:28:49.690Z,32.38
2019-01-27T16:30:58.211Z,31.25
2019-01-27T16:33:02.360Z,30.75
2019-01-27T16:35:11.157Z,27.62
2019-01-27T16:37:17.760Z,29.37
2019-01-27T16:39:21.413Z,31.00
2019-01-27T16:41:29.066Z,29.14
2019-01-27T16:43:33.215Z,33.75
2019-01-27T16:45:36.117Z,30.00
2019-01-27T16:47:40.298Z,28.00
2019-01-27T16:49:48.191Z,32.00
2019-01-27T16:51:52.313Z,28.75
2019-01-27T16:53:56.549Z,28.50
2019-01-27T16:56:00.110Z,29.00
2019-01-27T16:58:07.804Z,26.14
2019-01-27T17:00:23.226Z,30.00
2019-01-27T17:02:30.574Z,30.43
2019-01-27T17:04:37.250Z,28.75
2019-01-27T17:06:40.730Z,28.33
2019-01-27T17:08:49.105Z,28.25
2019-01-27T17:10:53.281Z,28.00
2019-01-27T17:12:57.398Z,28.00
2019-01-27T17:15:01.686Z,28.00
2019-01-27T17:17:09.358Z,26.25
2019-01-27T17:19:17.705Z,25.75
2019-01-27T17:21:26.079Z,28.25
2019-01-27T17:23:32.122Z,31.62
2019-01-27T17:25:41.414Z,31.67
2019-01-27T17:27:49.859Z,30.62
2019-01-27T17:29:55.707Z,31.00
2019-01-27T17:32:04.342Z,31.00
2019-01-27T17:34:12.610Z,30.50
2019-01-27T17:36:21.711Z,29.37
2019-01-27T17:38:25.904Z,30.50
2019-01-27T17:40:34.666Z,29.87
2019-01-27T17:42:41.555Z,33.25
2019-01-27T17:44:49.863Z,30.12
2019-01-27T17:46:58.251Z,33.00
2019-01-27T17:52:14.955Z,33.00
2019-01-27T17:54:22.646Z,38.25
2019-01-27T17:56:29.567Z,33.88
2019-01-27T17:58:38.786Z,35.00
2019-01-27T18:00:47.237Z,34.13
2019-01-27T18:02:55.690Z,33.00
2019-01-27T18:05:04.606Z,37.33
2019-01-27T18:07:14.335Z,34.00
2019-01-27T18:09:22.751Z,38.13
2019-01-27T18:11:30.266Z,37.33
2019-01-27T18:13:40.322Z,37.13
2019-01-27T18:15:48.847Z,35.50
2019-01-27T18:17:57.430Z,33.38
2019-01-27T18:20:05.687Z,36.25
2019-01-27T18:22:09.991Z,34.25
2019-01-27T18:24:20.797Z,35.67
2019-01-27T18:26:30.474Z,35.67
2019-01-27T18:28:34.775Z,33.50
2019-01-27T18:30:43.286Z,33.38
2019-01-27T18:32:48.455Z,34.75
2019-01-27T18:34:55.256Z,33.25
2019-01-27T18:37:02.082Z,34.50
2019-01-27T18:39:08.155Z,33.00
2019-01-27T18:41:14.702Z,35.25
2019-01-27T18:43:22.214Z,34.56
2019-01-27T18:45:30.665Z,34.88
2019-01-27T18:47:39.077Z,33.38
2019-01-27T18:49:43.259Z,33.00
2019-01-27T18:51:54.007Z,32.42
2019-01-27T18:54:02.510Z,32.88
2019-01-27T18:56:10.562Z,27.57
2019-01-27T18:58:17.767Z,31.00
2019-01-27T19:00:21.722Z,28.00
2019-01-27T19:02:29.927Z,32.13
2019-01-27T19:04:38.214Z,29.75
2019-01-27T19:06:45.036Z,31.00
2019-01-27T19:08:53.306Z,30.00
2019-01-27T19:11:00.772Z,34.00
2019-01-27T19:13:09.411Z,39.00
2019-01-27T19:15:17.062Z,44.33
2019-01-27T19:17:23.962Z,39.13
2019-01-27T19:19:31.622Z,41.00
2019-01-27T19:21:38.580Z,46.13
2019-01-27T19:23:47.145Z,37.63
2019-01-27T19:25:58.143Z,40.25
2019-01-27T19:28:07.323Z,35.22
2019-01-27T19:30:17.096Z,34.25
2019-01-27T19:32:24.305Z,33.63
2019-01-27T19:34:29.033Z,36.75
2019-01-27T19:36:37.863Z,35.38
2019-01-27T19:38:46.386Z,35.00
2019-01-27T19:40:50.641Z,34.00
2019-01-27T19:42:57.595Z,34.75
2019-01-27T19:45:07.486Z,37.75
2019-01-27T19:47:16.023Z,37.63
2019-01-27T19:49:22.790Z,35.88
2019-01-27T19:51:29.562Z,36.50
2019-01-27T19:53:38.119Z,34.75
2019-01-27T19:55:47.358Z,39.89
2019-01-27T19:57:54.923Z,38.44
2019-01-27T20:00:03.972Z,39.33
2019-01-27T20:02:13.380Z,40.78
2019-01-27T20:04:17.619Z,47.00
2019-01-27T20:06:26.259Z,43.75
2019-01-27T20:08:33.751Z,38.78
2019-01-27T20:10:41.626Z,45.22
2019-01-27T20:12:49.019Z,40.67
2019-01-27T20:14:56.483Z,43.78
2019-01-27T20:17:06.455Z,49.00
2019-01-27T20:19:16.533Z,54.44
2019-01-27T20:21:25.094Z,52.10
2019-01-27T20:23:32.462Z,40.44
2019-01-27T20:25:43.402Z,46.40
2019-01-27T20:27:48.696Z,46.50
2019-01-27T20:29:57.268Z,43.20
2019-01-27T20:32:06.411Z,40.50
2019-01-27T20:34:15.820Z,40.50
2019-01-27T20:36:23.206Z,47.33
2019-01-27T20:38:30.856Z,35.56
2019-01-27T20:40:41.059Z,39.22
2019-01-27T20:42:44.486Z,49.00
2019-01-27T20:44:52.971Z,47.40
2019-01-27T20:47:04.067Z,47.30
2019-01-27T20:49:09.175Z,46.14
2019-01-27T20:51:16.958Z,42.33
2019-01-27T20:53:27.160Z,47.33
2019-01-27T20:55:34.712Z,41.33
2019-01-27T20:57:44.995Z,50.10
2019-01-27T20:59:54.512Z,42.88
2019-01-27T21:02:01.292Z,48.00
2019-01-27T21:04:12.346Z,43.40
2019-01-27T21:06:18.146Z,49.71
2019-01-27T21:08:28.328Z,44.11
2019-01-27T21:10:38.818Z,42.78
2019-01-27T21:12:49.903Z,54.20
2019-01-27T21:14:58.129Z,44.44
2019-01-27T21:17:06.134Z,42.33
2019-01-27T21:19:16.834Z,47.40
2019-01-27T21:21:25.805Z,44.50
2019-01-27T21:23:30.582Z,42.50
2019-01-27T21:25:40.622Z,47.00
2019-01-27T21:27:51.284Z,44.00
2019-01-27T21:29:59.447Z,44.20
2019-01-27T21:32:06.870Z,49.78
2019-01-27T21:34:12.559Z,44.00
2019-01-27T21:36:18.215Z,44.75
2019-01-27T21:38:27.216Z,45.60
2019-01-27T21:40:34.651Z,46.11
2019-01-27T21:42:47.427Z,46.20
2019-01-27T21:44:57.579Z,46.40
2019-01-27T21:47:07.642Z,45.00
2019-01-27T21:49:13.222Z,42.75
2019-01-27T21:51:23.693Z,46.22
2019-01-27T21:53:33.799Z,50.89
2019-01-27T21:55:44.036Z,41.11
2019-01-27T21:57:49.317Z,44.75
2019-01-27T22:00:00.322Z,57.60
2019-01-27T22:02:05.378Z,56.00
2019-01-27T22:04:11.458Z,42.25
2019-01-27T22:06:19.235Z,45.56
2019-01-27T22:08:31.185Z,58.09
2019-01-27T22:10:40.098Z,49.33
2019-01-27T22:12:50.913Z,47.70
2019-01-27T22:14:59.949Z,48.20
2019-01-27T22:17:05.592Z,53.50
2019-01-27T22:19:16.583Z,54.60
2019-01-27T22:21:22.203Z,49.25
2019-01-27T22:23:33.904Z,53.82
2019-01-27T22:25:43.991Z,51.33
2019-01-27T22:27:51.990Z,55.38
2019-01-27T22:30:04.494Z,44.60
2019-01-27T22:32:12.122Z,47.56
2019-01-27T22:34:21.185Z,49.80
2019-01-27T22:36:26.906Z,52.00
2019-01-27T22:38:30.971Z,49.25
2019-01-27T22:40:39.758Z,58.33
2019-01-27T22:42:52.399Z,55.00
2019-01-27T22:45:01.954Z,65.83
2019-01-27T22:47:12.751Z,52.90
2019-01-27T22:49:23.398Z,58.50
2019-01-27T22:51:27.452Z,57.00
2019-01-27T22:53:33.031Z,55.14
2019-01-27T22:55:43.866Z,51.30
2019-01-27T22:57:54.768Z,56.40
2019-01-27T23:00:23.581Z,54.56
2019-01-27T23:02:33.755Z,51.11
2019-01-27T23:04:44.506Z,51.90
2019-01-27T23:06:50.223Z,50.25
2019-01-27T23:09:00.995Z,52.30
2019-01-27T23:11:11.689Z,51.20
2019-01-27T23:13:20.816Z,48.70
2019-01-27T23:15:31.514Z,52.50
2019-01-27T23:17:35.541Z,52.00
2019-01-27T23:19:45.539Z,47.00
2019-01-27T23:21:56.275Z,45.80
2019-01-27T23:24:00.439Z,58.00
2019-01-27T23:26:04.688Z,54.00
2019-01-27T23:28:10.415Z,53.00
2019-01-27T23:30:18.691Z,52.00
2019-01-27T23:32:28.803Z,48.56
2019-01-27T23:34:37.122Z,34.38
2019-01-27T23:36:45.540Z,36.75
2019-01-27T23:38:54.596Z,30.00
2019-01-27T23:41:01.836Z,33.67
2019-01-27T23:43:09.026Z,35.78
2019-01-27T23:45:13.146Z,28.00
2019-01-27T23:47:16.791Z,31.00
2019-01-27T23:49:25.003Z,30.12
2019-01-27T23:51:31.534Z,31.50
2019-01-27T23:53:37.960Z,32.63
2019-01-27T23:55:45.282Z,34.00
2019-01-27T23:57:52.758Z,32.78
